Boaz, Kentucky
Current Conditions -  °F | °C
As of 2:55 AM on Saturday 29 Nov 2014 (Local Time) from KM25 Reporting Station
Overcast Overcast  
Wind Chill: 43°   Ceiling: 3600
Heat Index: 48°   Visibility: 10mi
Dew Point: 32°   Wind: 14mph
Humidity: 54%   Direction: 200°SSW
Pressure: 30.03"   Gusts: 26mph
Location:  36.89°N, 88.63°W
Report Text: KM25 290855Z AUTO 20012G23KT 10SM OVC036 09/00 A3003 RMK AO2
Loading
Personal Weather Stations






























Interactive Weather Map New forecast layout! Learn more

10-Day Weather Forecast

Advertisements
Track Severe Weather on mobile